Time;durP1;ratioP1;P1;durP2;ratioP2;P2;SDS_P1;SDS_P2;PMS_P1;PMS_P2;Temp;Humidity;BMP_temperature;BMP_pressure;BME280_temperature;BME280_humidity;BME280_pressure;Samples;Min_cycle;Max_cycle;Signal;HPM_P1;HPM_P2
2022/12/02 00:01:09;;;;;;;40.08;16.77;;;;;;;;;;4932568;29;20054;-85
2022/12/02 00:03:36;;;;;;;40.37;18.13;;;;;;;;;;4913297;28;20036;-89
2022/12/02 00:06:01;;;;;;;39.20;17.13;;;;;;;;;;4915177;29;20032;-88
2022/12/02 00:08:31;;;;;;;36.88;16.80;;;;;;;;;;4934280;29;20043;-88
2022/12/02 00:11:00;;;;;;;37.83;16.45;;;;;;;;;;4929367;29;20877;-88
2022/12/02 00:13:51;;;;;;;35.20;17.15;;;;;;;;;;4916314;28;20051;-88
2022/12/02 00:16:21;;;;;;;33.38;16.23;;;;;;;;;;4902321;28;20067;-88
2022/12/02 00:18:47;;;;;;;35.08;16.63;;;;;;;;;;4931024;29;20039;-86
2022/12/02 00:21:12;;;;;;;37.75;17.88;;;;;;;;;;4915257;29;20039;-85
2022/12/02 00:23:38;;;;;;;39.20;17.73;;;;;;;;;;4917772;28;20369;-87
2022/12/02 00:26:03;;;;;;;36.53;17.45;;;;;;;;;;4917366;29;20036;-85
2022/12/02 00:28:29;;;;;;;40.83;17.95;;;;;;;;;;4914203;29;20035;-87
2022/12/02 00:30:54;;;;;;;36.10;16.58;;;;;;;;;;4916308;29;20119;-86
2022/12/02 00:33:20;;;;;;;36.35;17.23;;;;;;;;;;4917989;29;20071;-86
2022/12/02 00:35:45;;;;;;;37.35;17.92;;;;;;;;;;4915185;28;20391;-85
2022/12/02 00:38:12;;;;;;;37.80;17.13;;;;;;;;;;4915969;29;20498;-86
2022/12/02 00:40:38;;;;;;;35.93;16.13;;;;;;;;;;4902487;29;20039;-87
2022/12/02 00:48:32;;;;;;;39.47;17.27;;;;;;;;;;4933260;29;20039;-88
2022/12/02 00:50:57;;;;;;;36.67;16.48;;;;;;;;;;4917066;29;20043;-86
2022/12/02 00:53:23;;;;;;;37.85;16.65;;;;;;;;;;4924892;29;20535;-85
2022/12/02 00:55:49;;;;;;;37.15;17.23;;;;;;;;;;4920554;29;20103;-82
2022/12/02 00:58:14;;;;;;;36.88;15.68;;;;;;;;;;4937275;28;20050;-87
2022/12/02 01:00:40;;;;;;;35.63;16.40;;;;;;;;;;4933955;28;20036;-85
2022/12/02 01:03:05;;;;;;;36.33;16.70;;;;;;;;;;4918915;29;20039;-86
2022/12/02 01:05:30;;;;;;;38.33;15.85;;;;;;;;;;4919603;29;20066;-87
2022/12/02 01:07:56;;;;;;;38.83;17.10;;;;;;;;;;4921028;29;20071;-87
2022/12/02 01:10:21;;;;;;;37.53;17.27;;;;;;;;;;4935238;29;20043;-85
2022/12/02 01:12:47;;;;;;;31.67;15.52;;;;;;;;;;4921047;29;20031;-85
2022/12/02 01:15:12;;;;;;;35.72;16.45;;;;;;;;;;4933662;29;20043;-86
2022/12/02 01:17:38;;;;;;;39.38;17.73;;;;;;;;;;4919384;29;20492;-85
2022/12/02 01:20:03;;;;;;;38.33;16.65;;;;;;;;;;4921640;28;20083;-86
2022/12/02 01:22:29;;;;;;;35.63;16.65;;;;;;;;;;4935391;29;20099;-87
2022/12/02 01:24:55;;;;;;;40.75;17.23;;;;;;;;;;4925111;28;20075;-87
2022/12/02 01:27:20;;;;;;;39.63;16.88;;;;;;;;;;4917562;29;20491;-87
2022/12/02 01:29:48;;;;;;;37.63;16.77;;;;;;;;;;4919368;28;20166;-86
2022/12/02 01:32:13;;;;;;;37.35;17.38;;;;;;;;;;4919060;29;20040;-85
2022/12/02 01:34:40;;;;;;;35.38;16.35;;;;;;;;;;4918908;29;20105;-87
2022/12/02 01:37:06;;;;;;;36.13;17.10;;;;;;;;;;4918333;29;20044;-86
2022/12/02 01:39:31;;;;;;;40.55;17.73;;;;;;;;;;4921424;29;20046;-85
2022/12/02 01:41:58;;;;;;;38.90;16.85;;;;;;;;;;4918671;29;20191;-88
2022/12/02 01:44:23;;;;;;;38.85;17.08;;;;;;;;;;4920590;29;20518;-86
2022/12/02 01:46:49;;;;;;;38.80;17.92;;;;;;;;;;4918425;29;20064;-85
2022/12/02 01:49:14;;;;;;;37.55;17.15;;;;;;;;;;4916695;29;20362;-87
2022/12/02 01:51:40;;;;;;;38.70;17.05;;;;;;;;;;4917262;29;20039;-87
2022/12/02 01:54:05;;;;;;;38.45;17.13;;;;;;;;;;4918735;29;20043;-86
2022/12/02 01:56:31;;;;;;;36.58;16.75;;;;;;;;;;4922892;29;20046;-85
2022/12/02 01:58:56;;;;;;;38.63;17.73;;;;;;;;;;4918734;29;20068;-85
2022/12/02 02:01:27;;;;;;;36.22;16.77;;;;;;;;;;4923074;28;20431;-86
2022/12/02 02:03:52;;;;;;;39.90;17.98;;;;;;;;;;4917314;29;21926;-85
2022/12/02 02:06:21;;;;;;;37.30;17.23;;;;;;;;;;4915693;29;20190;-86
2022/12/02 02:08:47;;;;;;;38.17;17.63;;;;;;;;;;4919015;29;20042;-86
2022/12/02 02:11:12;;;;;;;40.80;17.88;;;;;;;;;;4932135;29;20039;-86
2022/12/02 02:13:37;;;;;;;38.75;17.30;;;;;;;;;;4917333;29;20379;-87
2022/12/02 02:16:03;;;;;;;40.33;17.42;;;;;;;;;;4919338;29;20035;-86
2022/12/02 02:18:29;;;;;;;41.20;17.63;;;;;;;;;;4915759;29;20055;-86
2022/12/02 02:20:56;;;;;;;43.17;17.10;;;;;;;;;;4913960;29;20071;-87
2022/12/02 02:23:22;;;;;;;41.03;17.95;;;;;;;;;;4915204;29;20043;-88
2022/12/02 02:25:51;;;;;;;34.92;16.77;;;;;;;;;;4921556;29;20123;-87
2022/12/02 02:28:16;;;;;;;38.45;17.73;;;;;;;;;;4931596;29;20115;-86
2022/12/02 02:30:42;;;;;;;36.35;16.50;;;;;;;;;;4916859;29;20167;-87
2022/12/02 02:33:09;;;;;;;39.28;18.25;;;;;;;;;;4920805;29;20151;-87
2022/12/02 02:35:41;;;;;;;42.33;18.33;;;;;;;;;;4919915;29;20087;-86
2022/12/02 02:38:08;;;;;;;38.58;16.92;;;;;;;;;;4937472;29;20598;-85
2022/12/02 02:40:33;;;;;;;41.10;17.35;;;;;;;;;;4921615;28;20039;-85
2022/12/02 02:43:00;;;;;;;39.80;16.88;;;;;;;;;;4918988;29;20043;-87
2022/12/02 02:45:28;;;;;;;40.83;17.45;;;;;;;;;;4917862;28;20051;-86
2022/12/02 02:47:54;;;;;;;38.60;16.70;;;;;;;;;;4932807;28;20483;-85
2022/12/02 02:50:20;;;;;;;34.50;16.63;;;;;;;;;;4916918;28;20067;-87
2022/12/02 02:52:46;;;;;;;40.57;17.53;;;;;;;;;;4932263;29;20520;-86
2022/12/02 02:55:20;;;;;;;37.90;16.80;;;;;;;;;;4930385;29;20032;-86
2022/12/02 02:57:46;;;;;;;41.00;17.45;;;;;;;;;;4932075;28;20047;-86
2022/12/02 03:00:15;;;;;;;37.22;16.67;;;;;;;;;;4915358;29;20093;-85
2022/12/02 03:02:41;;;;;;;39.25;17.05;;;;;;;;;;4918167;28;20098;-87
2022/12/02 03:05:06;;;;;;;39.00;16.60;;;;;;;;;;4918410;29;20035;-84
2022/12/02 03:07:33;;;;;;;39.58;16.92;;;;;;;;;;4919387;29;20044;-85
2022/12/02 03:09:58;;;;;;;40.83;17.45;;;;;;;;;;4914317;29;20036;-87
2022/12/02 03:12:24;;;;;;;41.10;17.23;;;;;;;;;;4915000;29;20054;-85
2022/12/02 03:14:49;;;;;;;37.60;16.27;;;;;;;;;;4948294;28;20562;-86
2022/12/02 03:17:15;;;;;;;40.15;16.55;;;;;;;;;;4917315;29;20056;-86
2022/12/02 03:19:41;;;;;;;38.55;17.50;;;;;;;;;;4916018;29;20491;-87
2022/12/02 03:22:08;;;;;;;40.00;17.58;;;;;;;;;;4918719;28;20032;-86
2022/12/02 03:24:34;;;;;;;37.63;17.60;;;;;;;;;;4917335;29;20043;-86
2022/12/02 03:27:00;;;;;;;38.60;16.80;;;;;;;;;;4932099;29;20356;-87
2022/12/02 03:29:27;;;;;;;40.22;17.13;;;;;;;;;;4914802;29;20032;-87
2022/12/02 03:31:52;;;;;;;39.70;17.53;;;;;;;;;;4902807;29;20067;-90
2022/12/02 03:34:18;;;;;;;39.47;16.50;;;;;;;;;;4915190;29;20078;-90
2022/12/02 03:36:43;;;;;;;38.38;15.95;;;;;;;;;;4915736;29;20531;-88
2022/12/02 03:39:09;;;;;;;41.10;17.80;;;;;;;;;;4915239;29;20046;-88
2022/12/02 03:41:35;;;;;;;36.53;17.05;;;;;;;;;;4918993;29;20117;-87
2022/12/02 03:44:01;;;;;;;37.63;16.77;;;;;;;;;;4931426;29;20035;-90
2022/12/02 03:46:27;;;;;;;39.20;17.20;;;;;;;;;;4917092;29;20055;-89
2022/12/02 03:48:53;;;;;;;40.15;16.88;;;;;;;;;;4902342;29;20032;-89
2022/12/02 03:51:18;;;;;;;45.80;16.98;;;;;;;;;;4917632;29;20054;-86
2022/12/02 03:53:44;;;;;;;41.60;17.00;;;;;;;;;;4920073;29;20035;-88
2022/12/02 03:56:09;;;;;;;41.47;17.50;;;;;;;;;;4919855;28;20054;-87
2022/12/02 03:58:44;;;;;;;38.92;17.58;;;;;;;;;;4919603;28;20039;-86
2022/12/02 04:01:10;;;;;;;37.60;16.80;;;;;;;;;;4914782;29;20055;-86
2022/12/02 04:03:35;;;;;;;42.03;17.25;;;;;;;;;;4916711;29;20050;-89
2022/12/02 04:06:00;;;;;;;36.35;16.52;;;;;;;;;;4929221;29;20488;-88
2022/12/02 04:08:26;;;;;;;36.08;16.17;;;;;;;;;;4915598;29;20035;-86
2022/12/02 04:10:51;;;;;;;36.30;15.90;;;;;;;;;;4912114;29;20036;-88
2022/12/02 04:13:17;;;;;;;41.65;16.60;;;;;;;;;;4924123;29;20031;-89
2022/12/02 04:15:42;;;;;;;40.38;17.10;;;;;;;;;;4921009;28;20036;-85
2022/12/02 04:18:08;;;;;;;42.28;16.45;;;;;;;;;;4921884;29;20133;-89
2022/12/02 04:20:33;;;;;;;40.13;16.23;;;;;;;;;;4933890;29;20511;-88
2022/12/02 04:22:58;;;;;;;42.38;17.23;;;;;;;;;;4923506;29;20440;-90
2022/12/02 04:25:24;;;;;;;35.50;16.73;;;;;;;;;;4922277;28;20499;-88
2022/12/02 04:27:49;;;;;;;41.47;16.45;;;;;;;;;;4921536;29;20039;-88
2022/12/02 04:30:15;;;;;;;36.17;16.20;;;;;;;;;;4924997;28;20151;-86
2022/12/02 04:32:40;;;;;;;40.60;16.58;;;;;;;;;;4918828;29;20556;-88
2022/12/02 04:35:06;;;;;;;34.55;15.75;;;;;;;;;;4921464;28;20044;-90
2022/12/02 04:37:31;;;;;;;36.78;16.50;;;;;;;;;;4936057;29;20024;-89
2022/12/02 04:39:57;;;;;;;34.53;16.30;;;;;;;;;;4939618;29;20032;-90
2022/12/02 04:42:22;;;;;;;38.33;15.70;;;;;;;;;;4920689;29;20451;-89
2022/12/02 04:44:48;;;;;;;37.42;16.50;;;;;;;;;;4933522;29;20041;-89
2022/12/02 04:47:13;;;;;;;36.08;15.98;;;;;;;;;;4936253;28;20434;-88
2022/12/02 04:49:38;;;;;;;34.28;15.93;;;;;;;;;;4921700;29;20046;-87
2022/12/02 04:52:04;;;;;;;35.47;15.18;;;;;;;;;;4922051;28;20131;-88
2022/12/02 04:54:29;;;;;;;34.65;15.18;;;;;;;;;;4920425;29;20042;-88
2022/12/02 04:56:54;;;;;;;33.17;15.18;;;;;;;;;;4920366;29;20450;-88
2022/12/02 04:59:20;;;;;;;30.05;14.23;;;;;;;;;;4921939;29;20038;-88
2022/12/02 05:01:45;;;;;;;29.30;13.82;;;;;;;;;;4920026;28;20402;-89
2022/12/02 05:04:11;;;;;;;33.15;14.32;;;;;;;;;;4919678;29;20475;-89
2022/12/02 05:06:36;;;;;;;30.85;13.93;;;;;;;;;;4916932;29;20036;-88
2022/12/02 05:09:02;;;;;;;31.52;14.27;;;;;;;;;;4921461;29;20027;-88
2022/12/02 05:11:27;;;;;;;27.63;13.05;;;;;;;;;;4918827;29;20057;-88
2022/12/02 05:13:53;;;;;;;32.55;15.63;;;;;;;;;;4902995;29;20403;-89
2022/12/02 05:16:18;;;;;;;30.67;14.90;;;;;;;;;;4922006;28;20046;-88
2022/12/02 05:18:43;;;;;;;30.55;14.18;;;;;;;;;;4921812;28;20049;-89
2022/12/02 05:21:09;;;;;;;30.30;13.75;;;;;;;;;;4917731;29;20043;-90
2022/12/02 05:23:34;;;;;;;27.33;12.77;;;;;;;;;;4919361;29;20047;-90
2022/12/02 05:26:00;;;;;;;26.60;13.23;;;;;;;;;;4908038;29;20065;-89
2022/12/02 05:28:25;;;;;;;28.30;14.13;;;;;;;;;;4920356;28;20039;-92
2022/12/02 05:30:50;;;;;;;26.73;13.15;;;;;;;;;;4921855;29;20115;-89
2022/12/02 05:33:16;;;;;;;29.58;13.57;;;;;;;;;;4916535;29;20094;-89
2022/12/02 05:35:41;;;;;;;27.63;12.73;;;;;;;;;;4917788;29;20111;-91
2022/12/02 05:38:07;;;;;;;27.25;12.98;;;;;;;;;;4924599;29;20043;-88
2022/12/02 05:40:32;;;;;;;25.70;12.55;;;;;;;;;;4918722;29;20044;-88
2022/12/02 05:43:11;;;;;;;25.67;12.32;;;;;;;;;;4936867;29;20559;-89
2022/12/02 05:45:37;;;;;;;28.88;13.32;;;;;;;;;;4933169;29;20051;-89
2022/12/02 05:48:05;;;;;;;27.75;12.52;;;;;;;;;;4903412;29;20032;-89
2022/12/02 05:50:32;;;;;;;30.90;14.05;;;;;;;;;;4915511;29;20146;-88
2022/12/02 05:52:58;;;;;;;32.08;14.13;;;;;;;;;;4916423;29;20551;-90
2022/12/02 05:55:23;;;;;;;27.65;12.63;;;;;;;;;;4934302;28;20043;-87
2022/12/02 05:57:49;;;;;;;25.30;12.65;;;;;;;;;;4919798;29;20451;-88
2022/12/02 06:00:21;;;;;;;27.75;12.00;;;;;;;;;;4922320;28;20049;-88
2022/12/02 06:02:57;;;;;;;24.50;11.93;;;;;;;;;;4933146;28;20039;-87
2022/12/02 06:05:25;;;;;;;29.13;12.07;;;;;;;;;;4901677;28;20418;-89
2022/12/02 06:07:52;;;;;;;;;;;;;;;;;;4929830;29;20042;-88
2022/12/02 06:10:20;;;;;;;26.92;11.90;;;;;;;;;;4932739;28;20362;-91
2022/12/02 06:12:46;;;;;;;28.73;11.90;;;;;;;;;;4930746;28;20488;-89
2022/12/02 06:15:14;;;;;;;26.42;12.23;;;;;;;;;;4918637;28;20051;-88
2022/12/02 06:17:40;;;;;;;27.02;12.98;;;;;;;;;;4903855;29;20517;-88
2022/12/02 06:20:06;;;;;;;25.23;12.25;;;;;;;;;;4915027;29;20031;-86
2022/12/02 06:22:32;;;;;;;26.10;11.85;;;;;;;;;;4915702;29;20499;-86
2022/12/02 06:25:04;;;;;;;25.42;11.60;;;;;;;;;;4931004;29;20032;-86
2022/12/02 06:27:29;;;;;;;21.90;10.52;;;;;;;;;;4928282;29;20040;-86
2022/12/02 06:30:01;;;;;;;21.90;10.98;;;;;;;;;;4917223;29;20395;-89
2022/12/02 06:32:37;;;;;;;25.08;11.10;;;;;;;;;;4927302;29;20042;-87
2022/12/02 06:35:24;;;;;;;28.27;12.07;;;;;;;;;;4929138;29;20625;-87
2022/12/02 06:37:52;;;;;;;22.65;11.18;;;;;;;;;;4916391;29;20039;-89
2022/12/02 06:40:26;;;;;;;21.50;11.65;;;;;;;;;;4914898;29;20385;-88
2022/12/02 06:42:51;;;;;;;24.63;10.20;;;;;;;;;;4931065;28;20040;-89
2022/12/02 06:45:20;;;;;;;24.83;12.13;;;;;;;;;;4922868;28;20039;-87
2022/12/02 06:47:51;;;;;;;23.27;11.57;;;;;;;;;;4928829;29;20040;-88
2022/12/02 06:50:25;;;;;;;22.00;11.38;;;;;;;;;;4915625;28;20116;-90
2022/12/02 06:52:50;;;;;;;23.65;11.55;;;;;;;;;;4919275;29;20042;-88
2022/12/02 06:55:32;;;;;;;24.45;11.10;;;;;;;;;;4918638;28;20047;-86
2022/12/02 06:58:09;;;;;;;23.15;11.18;;;;;;;;;;4919413;29;20036;-87
2022/12/02 07:03:29;;;;;;;23.60;11.68;;;;;;;;;;5035000;28;20418;-88
2022/12/02 07:06:08;;;;;;;20.15;10.32;;;;;;;;;;5019948;28;20048;-89
2022/12/02 07:08:34;;;;;;;22.83;11.07;;;;;;;;;;5009135;28;20033;-84
2022/12/02 07:10:59;;;;;;;23.48;11.52;;;;;;;;;;5010170;28;20564;-88
2022/12/02 07:13:25;;;;;;;21.63;10.75;;;;;;;;;;4999323;28;20116;-87
2022/12/02 07:15:51;;;;;;;21.88;11.45;;;;;;;;;;4995632;28;20054;-86
2022/12/02 07:18:18;;;;;;;22.65;11.00;;;;;;;;;;5015592;28;20071;-87
2022/12/02 07:20:44;;;;;;;24.80;11.15;;;;;;;;;;4989545;28;20491;-87
2022/12/02 07:23:20;;;;;;;23.05;11.30;;;;;;;;;;4987242;28;20052;-87
2022/12/02 07:25:53;;;;;;;25.35;11.10;;;;;;;;;;4988816;28;20029;-88
2022/12/02 07:28:29;;;;;;;21.80;11.05;;;;;;;;;;4991738;28;20038;-92
2022/12/02 07:31:00;;;;;;;23.45;11.25;;;;;;;;;;5013833;28;20450;-90
2022/12/02 07:33:25;;;;;;;23.45;11.63;;;;;;;;;;5015706;28;20662;-87
2022/12/02 07:35:51;;;;;;;21.73;10.82;;;;;;;;;;4987126;28;20034;-91
2022/12/02 07:38:16;;;;;;;20.92;10.60;;;;;;;;;;5002127;28;20058;-90
2022/12/02 07:40:42;;;;;;;22.35;11.10;;;;;;;;;;5018968;28;20038;-89
2022/12/02 07:43:10;;;;;;;23.48;11.65;;;;;;;;;;4983138;28;20050;-89
2022/12/02 07:45:36;;;;;;;24.27;11.10;;;;;;;;;;4978544;28;20043;-90
2022/12/02 07:48:02;;;;;;;24.13;11.25;;;;;;;;;;4987621;28;20038;-90
2022/12/02 07:50:27;;;;;;;22.33;10.85;;;;;;;;;;4989239;28;20034;-90
2022/12/02 07:52:52;;;;;;;23.98;11.82;;;;;;;;;;5003594;28;20053;-90
2022/12/02 07:55:18;;;;;;;27.70;12.32;;;;;;;;;;5017732;28;20031;-89
2022/12/02 07:57:44;;;;;;;24.80;12.10;;;;;;;;;;4995032;28;20045;-89
2022/12/02 08:00:10;;;;;;;26.60;11.90;;;;;;;;;;4986024;28;20038;-88
2022/12/02 08:02:35;;;;;;;25.88;11.80;;;;;;;;;;4996089;28;20043;-87
2022/12/02 08:05:01;;;;;;;24.10;11.88;;;;;;;;;;4995111;28;20035;-86
2022/12/02 08:07:26;;;;;;;22.42;11.43;;;;;;;;;;4958079;28;20033;-88
2022/12/02 08:09:51;;;;;;;25.85;11.82;;;;;;;;;;4965329;28;20037;-90
2022/12/02 08:12:17;;;;;;;20.52;9.88;;;;;;;;;;4964524;28;20042;-90
2022/12/02 08:14:42;;;;;;;25.58;11.02;;;;;;;;;;4955158;28;20455;-90
2022/12/02 08:17:08;;;;;;;22.75;11.13;;;;;;;;;;4994181;28;20039;-88
2022/12/02 08:19:33;;;;;;;22.60;10.65;;;;;;;;;;4963820;28;20176;-89
2022/12/02 08:21:59;;;;;;;22.02;10.23;;;;;;;;;;4950708;28;20063;-89
2022/12/02 08:24:24;;;;;;;23.25;10.82;;;;;;;;;;4952500;28;20286;-87
2022/12/02 08:26:50;;;;;;;20.98;10.55;;;;;;;;;;4945525;28;20154;-88
2022/12/02 08:29:15;;;;;;;21.13;10.15;;;;;;;;;;4948429;28;20491;-89
2022/12/02 08:31:40;;;;;;;23.17;10.57;;;;;;;;;;4953182;28;20128;-89
2022/12/02 08:34:06;;;;;;;24.58;11.02;;;;;;;;;;4971924;28;20097;-90
2022/12/02 08:36:33;;;;;;;23.95;11.07;;;;;;;;;;4951852;28;20118;-90
2022/12/02 08:38:58;;;;;;;21.55;10.07;;;;;;;;;;4962008;28;20028;-90
2022/12/02 08:41:24;;;;;;;22.35;10.82;;;;;;;;;;4983368;28;20512;-87
2022/12/02 08:43:50;;;;;;;22.73;10.57;;;;;;;;;;4948198;28;20081;-89
2022/12/02 08:46:15;;;;;;;21.90;11.00;;;;;;;;;;4993163;28;20039;-87
2022/12/02 08:48:41;;;;;;;21.67;10.55;;;;;;;;;;4963382;28;20049;-87
2022/12/02 08:51:06;;;;;;;22.30;10.15;;;;;;;;;;4943647;28;20514;-89
2022/12/02 08:53:32;;;;;;;23.63;10.65;;;;;;;;;;4950975;28;20035;-86
2022/12/02 08:55:57;;;;;;;22.00;10.63;;;;;;;;;;4951620;28;20089;-87
2022/12/02 08:58:23;;;;;;;22.58;10.73;;;;;;;;;;4956550;28;20039;-87
2022/12/02 09:00:48;;;;;;;26.40;11.85;;;;;;;;;;4998903;28;20042;-89
2022/12/02 09:03:14;;;;;;;22.77;11.15;;;;;;;;;;4955256;28;20057;-88
2022/12/02 09:05:40;;;;;;;23.95;10.88;;;;;;;;;;4984387;28;20571;-89
2022/12/02 09:08:06;;;;;;;22.65;11.05;;;;;;;;;;4965643;28;20047;-89
2022/12/02 09:10:32;;;;;;;28.08;12.32;;;;;;;;;;4977242;28;20574;-88
2022/12/02 09:12:57;;;;;;;23.40;11.43;;;;;;;;;;4979934;28;20117;-86
2022/12/02 09:15:23;;;;;;;28.23;12.43;;;;;;;;;;4987500;28;20042;-89
2022/12/02 09:17:48;;;;;;;25.65;11.15;;;;;;;;;;4953720;28;20035;-92
2022/12/02 09:20:15;;;;;;;24.75;11.20;;;;;;;;;;4979055;28;20938;-89
2022/12/02 09:22:44;;;;;;;30.80;11.85;;;;;;;;;;4960734;28;20181;-87
2022/12/02 09:25:11;;;;;;;23.90;10.95;;;;;;;;;;4961076;28;20047;-89
2022/12/02 09:27:36;;;;;;;30.27;12.83;;;;;;;;;;4948491;28;20046;-88
2022/12/02 09:30:02;;;;;;;26.88;12.05;;;;;;;;;;4956285;28;20675;-89
2022/12/02 09:32:28;;;;;;;26.92;11.93;;;;;;;;;;4961848;28;20042;-88
2022/12/02 09:34:53;;;;;;;25.73;11.70;;;;;;;;;;4948048;28;20042;-88
2022/12/02 09:37:19;;;;;;;26.13;11.50;;;;;;;;;;4958445;28;20035;-91
2022/12/02 09:39:44;;;;;;;24.70;11.10;;;;;;;;;;4945016;28;20541;-90
2022/12/02 09:42:10;;;;;;;23.23;10.82;;;;;;;;;;4964724;28;20049;-91
2022/12/02 09:44:36;;;;;;;26.35;11.65;;;;;;;;;;4970907;28;20031;-89
2022/12/02 09:47:02;;;;;;;26.05;11.80;;;;;;;;;;4981745;28;20050;-92
2022/12/02 09:49:27;;;;;;;23.35;11.70;;;;;;;;;;4987508;28;20090;-88
2022/12/02 09:51:57;;;;;;;27.40;11.43;;;;;;;;;;4970903;28;20673;-89
2022/12/02 09:54:25;;;;;;;25.25;12.18;;;;;;;;;;4972094;28;20038;-89
2022/12/02 09:56:50;;;;;;;27.73;11.60;;;;;;;;;;4944736;28;20042;-90
2022/12/02 09:59:17;;;;;;;24.27;11.10;;;;;;;;;;4958528;28;20035;-86
2022/12/02 10:02:14;;;;;;;24.65;11.52;;;;;;;;;;4960110;28;20452;-90
2022/12/02 10:04:39;;;;;;;26.35;11.82;;;;;;;;;;4967523;28;20038;-89
2022/12/02 10:07:08;;;;;;;24.13;10.65;;;;;;;;;;4964402;28;20371;-88
2022/12/02 10:09:34;;;;;;;26.73;11.85;;;;;;;;;;4963769;28;20457;-90
2022/12/02 10:11:59;;;;;;;21.88;10.07;;;;;;;;;;4966515;28;20061;-88
2022/12/02 10:14:25;;;;;;;25.48;10.88;;;;;;;;;;4953575;28;20042;-88
2022/12/02 10:16:52;;;;;;;24.95;11.02;;;;;;;;;;4967818;28;20038;-90
2022/12/02 10:19:18;;;;;;;23.40;10.57;;;;;;;;;;4969821;28;20041;-91
2022/12/02 10:21:44;;;;;;;24.42;10.68;;;;;;;;;;4969404;28;20209;-87
2022/12/02 10:24:11;;;;;;;27.08;11.48;;;;;;;;;;4964447;28;20457;-87
2022/12/02 10:26:49;;;;;;;27.27;12.52;;;;;;;;;;4945502;28;20039;-90
2022/12/02 10:29:18;;;;;;;28.52;12.15;;;;;;;;;;4980636;28;20515;-89
2022/12/02 10:32:01;;;;;;;29.10;12.20;;;;;;;;;;4960494;28;20031;-89
2022/12/02 10:34:27;;;;;;;25.63;10.73;;;;;;;;;;4961969;28;20113;-89
2022/12/02 10:36:53;;;;;;;26.58;11.98;;;;;;;;;;4961262;28;20042;-91
2022/12/02 10:39:46;;;;;;;30.50;12.23;;;;;;;;;;4949826;28;20038;-89
2022/12/02 10:42:15;;;;;;;29.00;12.68;;;;;;;;;;4921266;28;20116;-88
2022/12/02 10:44:43;;;;;;;25.73;11.98;;;;;;;;;;4909749;28;20440;-89
2022/12/02 10:47:20;;;;;;;25.05;11.65;;;;;;;;;;4928240;29;20123;-88
2022/12/02 10:49:58;;;;;;;23.33;10.73;;;;;;;;;;4932166;28;20554;-88
2022/12/02 10:52:30;;;;;;;29.77;12.68;;;;;;;;;;4915576;28;20039;-87
2022/12/02 10:54:57;;;;;;;31.85;12.95;;;;;;;;;;4919388;29;20039;-89
2022/12/02 10:57:24;;;;;;;28.05;12.05;;;;;;;;;;4910123;28;20058;-88
2022/12/02 10:59:50;;;;;;;32.35;12.88;;;;;;;;;;4908400;28;20157;-91
2022/12/02 11:02:54;;;;;;;29.70;12.70;;;;;;;;;;4942750;28;20133;-89
2022/12/02 11:05:26;;;;;;;25.77;11.25;;;;;;;;;;4942038;28;20562;-89
2022/12/02 11:08:00;;;;;;;28.90;12.05;;;;;;;;;;4942179;28;20038;-88
2022/12/02 11:10:39;;;;;;;30.20;12.73;;;;;;;;;;4944441;28;20070;-86
2022/12/02 11:13:43;;;;;;;31.80;13.00;;;;;;;;;;4944483;28;20070;-85
2022/12/02 11:16:26;;;;;;;35.42;13.20;;;;;;;;;;4956794;28;20043;-87
2022/12/02 11:19:23;;;;;;;32.30;13.40;;;;;;;;;;4977325;28;20114;-87
2022/12/02 11:21:51;;;;;;;31.05;12.85;;;;;;;;;;4989261;28;20046;-88
2022/12/02 11:24:22;;;;;;;33.88;13.63;;;;;;;;;;4984248;28;20038;-88
2022/12/02 11:27:02;;;;;;;29.08;12.43;;;;;;;;;;5003694;28;20049;-90
2022/12/02 11:29:41;;;;;;;33.25;13.38;;;;;;;;;;4997550;28;20046;-89
2022/12/02 11:32:21;;;;;;;31.80;13.38;;;;;;;;;;4988181;28;20088;-90
2022/12/02 11:35:01;;;;;;;36.58;13.05;;;;;;;;;;4995408;28;20065;-88
2022/12/02 11:39:53;;;;;;;33.90;14.55;;;;;;;;;;4999417;28;20432;-88
2022/12/02 11:42:22;;;;;;;29.55;13.15;;;;;;;;;;5004033;28;20042;-91
2022/12/02 11:44:48;;;;;;;30.35;13.50;;;;;;;;;;5006629;28;20089;-88
2022/12/02 11:47:24;;;;;;;31.98;14.10;;;;;;;;;;4987811;28;20037;-88
2022/12/02 11:49:49;;;;;;;29.50;12.35;;;;;;;;;;5001797;28;20038;-89
2022/12/02 11:52:18;;;;;;;31.83;13.48;;;;;;;;;;4991139;28;20121;-90
2022/12/02 11:54:49;;;;;;;30.58;13.30;;;;;;;;;;4992753;28;20052;-87
2022/12/02 11:57:21;;;;;;;33.28;13.98;;;;;;;;;;4999575;28;20513;-88
2022/12/02 11:59:47;;;;;;;27.95;12.73;;;;;;;;;;4996755;28;20038;-87
2022/12/02 12:02:15;;;;;;;30.77;14.23;;;;;;;;;;5001083;28;20745;-88
2022/12/02 12:04:41;;;;;;;32.22;14.13;;;;;;;;;;5002765;28;20042;-89
2022/12/02 12:07:07;;;;;;;37.05;14.00;;;;;;;;;;4988786;28;20580;-86
2022/12/02 12:09:33;;;;;;;32.40;14.13;;;;;;;;;;5006704;28;20117;-88
2022/12/02 12:12:14;;;;;;;30.27;13.77;;;;;;;;;;4985579;28;20052;-87
2022/12/02 12:15:03;;;;;;;29.88;13.00;;;;;;;;;;5000085;28;20495;-86
2022/12/02 12:17:42;;;;;;;35.03;13.90;;;;;;;;;;4985167;28;20040;-90
2022/12/02 12:20:14;;;;;;;32.10;14.60;;;;;;;;;;4999858;28;20046;-87
2022/12/02 12:22:40;;;;;;;31.27;13.60;;;;;;;;;;4989721;28;20048;-86
2022/12/02 12:25:31;;;;;;;32.75;14.35;;;;;;;;;;4968510;28;20046;-87
2022/12/02 12:27:59;;;;;;;33.20;13.15;;;;;;;;;;4976397;28;20038;-87
2022/12/02 12:30:25;;;;;;;29.50;14.05;;;;;;;;;;4984052;28;20784;-89
2022/12/02 12:32:50;;;;;;;33.38;14.73;;;;;;;;;;4972363;28;20048;-88
2022/12/02 12:35:16;;;;;;;32.88;14.13;;;;;;;;;;4981306;28;20046;-88
2022/12/02 12:37:41;;;;;;;34.42;14.35;;;;;;;;;;4961228;28;20038;-88
2022/12/02 12:40:07;;;;;;;36.35;14.57;;;;;;;;;;4960974;28;20393;-88
2022/12/02 12:42:32;;;;;;;32.40;13.80;;;;;;;;;;4969003;28;20034;-89
2022/12/02 12:44:58;;;;;;;34.05;13.60;;;;;;;;;;4977144;28;20089;-90
2022/12/02 12:47:23;;;;;;;34.90;13.10;;;;;;;;;;4989067;28;20072;-88
2022/12/02 12:49:49;;;;;;;30.55;14.50;;;;;;;;;;4992412;28;20029;-87
2022/12/02 12:52:14;;;;;;;29.20;12.43;;;;;;;;;;5002676;28;20069;-88
2022/12/02 12:54:39;;;;;;;34.83;13.85;;;;;;;;;;5005422;28;20781;-87
2022/12/02 12:57:05;;;;;;;36.55;14.05;;;;;;;;;;4988184;28;20405;-87
2022/12/02 12:59:30;;;;;;;32.00;13.27;;;;;;;;;;5002852;28;20125;-86
2022/12/02 13:01:56;;;;;;;34.97;13.95;;;;;;;;;;4990948;28;20052;-88
2022/12/02 13:04:21;;;;;;;29.02;11.82;;;;;;;;;;4988679;28;20039;-89
2022/12/02 13:06:47;;;;;;;31.10;13.43;;;;;;;;;;4989695;28;20042;-83
2022/12/02 13:09:13;;;;;;;33.13;13.48;;;;;;;;;;4988102;28;20037;-90
2022/12/02 13:11:39;;;;;;;31.23;13.65;;;;;;;;;;4979527;28;20520;-90
2022/12/02 13:14:05;;;;;;;37.33;14.85;;;;;;;;;;4983074;28;20038;-89
2022/12/02 13:16:31;;;;;;;31.85;12.93;;;;;;;;;;4986255;28;20632;-87
2022/12/02 13:18:56;;;;;;;30.08;13.10;;;;;;;;;;4998484;28;20417;-87
2022/12/02 13:21:22;;;;;;;33.08;14.02;;;;;;;;;;4981924;28;20959;-87
2022/12/02 13:23:47;;;;;;;30.77;13.18;;;;;;;;;;4989151;28;20113;-84
2022/12/02 13:26:12;;;;;;;32.90;13.95;;;;;;;;;;4998000;28;20200;-86
2022/12/02 13:28:38;;;;;;;36.15;14.02;;;;;;;;;;4990307;28;20033;-86
2022/12/02 13:31:23;;;;;;;34.53;13.70;;;;;;;;;;5001505;28;20038;-87
2022/12/02 13:33:49;;;;;;;32.05;13.20;;;;;;;;;;4963779;28;20072;-90
2022/12/02 13:36:14;;;;;;;31.75;14.32;;;;;;;;;;4975778;28;20043;-88
2022/12/02 13:38:40;;;;;;;35.72;13.55;;;;;;;;;;4969799;28;20038;-88
2022/12/02 13:41:05;;;;;;;31.00;12.73;;;;;;;;;;4957108;28;20465;-88
2022/12/02 13:43:31;;;;;;;32.17;13.43;;;;;;;;;;4972402;28;20037;-88
2022/12/02 13:45:56;;;;;;;28.83;12.95;;;;;;;;;;4954079;28;20045;-88
2022/12/02 13:48:21;;;;;;;32.15;13.38;;;;;;;;;;4943838;28;20070;-89
2022/12/02 13:50:47;;;;;;;28.60;12.00;;;;;;;;;;4957907;28;20043;-89
2022/12/02 13:53:12;;;;;;;27.30;12.73;;;;;;;;;;4968557;28;20070;-92
2022/12/02 13:55:38;;;;;;;34.50;13.48;;;;;;;;;;4979311;28;20205;-92
2022/12/02 13:58:03;;;;;;;29.65;12.95;;;;;;;;;;4972660;28;20043;-90
2022/12/02 14:00:31;;;;;;;35.15;15.13;;;;;;;;;;4960331;28;20046;-88
2022/12/02 14:02:56;;;;;;;29.05;12.13;;;;;;;;;;4951508;28;20058;-89
2022/12/02 14:05:22;;;;;;;31.45;13.30;;;;;;;;;;4968174;28;20612;-89
2022/12/02 14:07:47;;;;;;;31.67;13.00;;;;;;;;;;4977730;28;20061;-84
2022/12/02 14:10:12;;;;;;;31.02;13.10;;;;;;;;;;4971719;28;20042;-83
2022/12/02 14:12:38;;;;;;;28.58;12.15;;;;;;;;;;4988363;28;20038;-87
2022/12/02 14:15:04;;;;;;;30.38;12.75;;;;;;;;;;4967450;28;20045;-85
2022/12/02 14:17:29;;;;;;;26.85;11.73;;;;;;;;;;4964905;28;20039;-84
2022/12/02 14:19:55;;;;;;;28.83;12.98;;;;;;;;;;4984930;28;20045;-82
2022/12/02 14:22:20;;;;;;;25.85;11.80;;;;;;;;;;4987035;28;20413;-82
2022/12/02 14:24:45;;;;;;;28.55;12.23;;;;;;;;;;4982932;28;20038;-84
2022/12/02 14:27:11;;;;;;;28.88;12.77;;;;;;;;;;4985263;28;20036;-83
2022/12/02 14:29:36;;;;;;;27.63;11.57;;;;;;;;;;4997853;28;20038;-85
2022/12/02 14:32:01;;;;;;;30.08;13.20;;;;;;;;;;4983215;28;20119;-86